YM Uniform — A8OR8 — position and weather

sailwx.info

Track history (hours):
 
Tides and Currents Weather Stations Pressure Air Temp Water Temp Dewpoint Dewpoint Depression Visibility Wind Speed Wind Dir Waves Ship Positions

YM Uniform

Last reported at 2018-Feb-18 04:06 UTC. Time now 2018-Feb-21 07:16 UTC.
Position N 41°16' E 140°07'.

Length 333 m; draft 10.2 m.

Type: Cargo ship. MMSI: 636013693.

Date/timePositionNaut miles runAvg speedWind from/ knotsBaromVisibWave heightAir tempDewpointWater temp
2018-Feb-18 04:06N 41°16' E 140°07'2 6.5
2018-Feb-18 03:52N 41°17' E 140°09'3 5.9
2018-Feb-18 03:22N 41°18' E 140°12'2 6.2
2018-Feb-18 02:58N 41°20' E 140°15'3 5.5
2018-Feb-18 02:30N 41°21' E 140°18'3 6.3
2018-Feb-18 02:00N 41°23' E 140°21'4 7.1
2018-Feb-18 01:29N 41°25' E 140°25'3 6.8
2018-Feb-18 01:00N 41°26' E 140°29'4 7.3
2018-Feb-18 00:30N 41°28' E 140°33'4 7.9
2018-Feb-18 00:00N 41°30' E 140°38'4 8.1
2018-Feb-17 23:30N 41°33' E 140°42'4 7.6
2018-Feb-17 23:00N 41°35' E 140°46'4 7.4
2018-Feb-17 22:30N 41°37' E 140°50'3 6.8
2018-Feb-17 22:00N 41°38' E 140°54'3 5.9
2018-Feb-17 21:30N 41°39' E 140°58'3 6.2
2018-Feb-17 21:00N 41°39' E 141°02'5 9.1
2018-Feb-17 20:29N 41°41' E 141°08'4 9.1
2018-Feb-17 20:00N 41°43' E 141°13'4 8.4
2018-Feb-17 19:30N 41°45' E 141°18'4 7.8
2018-Feb-17 19:00N 41°46' E 141°23'4 7.5
2018-Feb-17 18:31N 41°48' E 141°28'4 7.9
2018-Feb-17 18:00N 41°50' E 141°32'4 8.0
2018-Feb-17 17:26N 41°52' E 141°38'10 0.8
2018-Feb-17 05:09N 42°01' E 141°37'2 1.9
2018-Feb-17 04:18N 42°01' E 141°35'1 2.1
2018-Feb-17 03:51N 42°01' E 141°33'1 1.9
2018-Feb-17 03:25N 42°01' E 141°32'1 2.0
2018-Feb-17 02:51N 42°00' E 141°31'1 2.1
2018-Feb-17 02:28N 41°60' E 141°30'1 1.8
2018-Feb-17 02:00N 41°59' E 141°29'1 1.7
2018-Feb-17 01:29N 41°59' E 141°28'1 1.6
2018-Feb-17 00:57N 41°59' E 141°27'1 1.4
2018-Feb-17 00:31N 41°59' E 141°26'0 0.8
2018-Feb-16 23:56N 41°59' E 141°26'15 1.7
2018-Feb-16 14:43N 41°54' E 141°45'0 0.7
2018-Feb-16 14:27N 41°54' E 141°45'1 1.1
2018-Feb-16 13:07N 41°53' E 141°43'0 1.3
2018-Feb-16 12:58N 41°53' E 141°43'1 1.4
2018-Feb-16 12:17N 41°53' E 141°42'1 1.5
2018-Feb-16 11:56N 41°53' E 141°41'1 1.6
2018-Feb-16 11:29N 41°52' E 141°40'1 1.7
2018-Feb-16 11:00N 41°52' E 141°39'1 1.8
2018-Feb-16 10:30N 41°52' E 141°38'1 1.7
2018-Feb-16 10:00N 41°51' E 141°37'1 1.9
2018-Feb-16 09:29N 41°51' E 141°36'1 1.7
2018-Feb-16 08:58N 41°50' E 141°35'1 1.6
2018-Feb-16 08:30N 41°50' E 141°34'1 1.7
2018-Feb-16 08:00N 41°50' E 141°33'1 1.5
2018-Feb-16 07:30N 41°50' E 141°32'1 1.3
2018-Feb-16 06:59N 41°50' E 141°31'1 1.2
2018-Feb-16 06:30N 41°50' E 141°30'1 1.2
2018-Feb-16 06:00N 41°50' E 141°30'1 1.3
2018-Feb-16 05:28N 41°51' E 141°29'1 1.4
2018-Feb-16 04:55N 41°51' E 141°28'1 1.5
2018-Feb-16 04:30N 41°52' E 141°27'1 1.4
2018-Feb-16 03:55N 41°52' E 141°27'1 1.4
2018-Feb-16 03:24N 41°53' E 141°27'1 1.2
2018-Feb-16 02:58N 41°53' E 141°27'4 6.4
2018-Feb-16 02:17N 41°52' E 141°21'0 0.5
2018-Feb-16 02:00N 41°52' E 141°21'2 3.3
2018-Feb-16 01:30N 41°52' E 141°23'4 7.9
2018-Feb-16 00:59N 41°52' E 141°29'611.9
2018-Feb-16 00:30N 41°52' E 141°37'  
2018-Feb-08 23:00N 54°30' W 166°18'   140 / 251008.0 4.0 6.0
Track history (hours):
 
Tides and Currents Weather Stations Pressure Air Temp Water Temp Dewpoint Dewpoint Depression Visibility Wind Speed Wind Dir Waves Ship Positions

YM Uniform

Last reported at 2018-Feb-18 04:06 UTC. Time now 2018-Feb-21 07:16 UTC.
Position N 41°16' E 140°07'.

Length 333 m; draft 10.2 m.

Type: Cargo ship. MMSI: 636013693.

Date/timePositionNaut miles runAvg speedWind from/ knotsBaromVisibWave heightAir tempDewpointWater temp
2018-Feb-18 04:06N 41°16' E 140°07'2 6.5
2018-Feb-18 03:52N 41°17' E 140°09'3 5.9
2018-Feb-18 03:22N 41°18' E 140°12'2 6.2
2018-Feb-18 02:58N 41°20' E 140°15'3 5.5
2018-Feb-18 02:30N 41°21' E 140°18'3 6.3
2018-Feb-18 02:00N 41°23' E 140°21'4 7.1
2018-Feb-18 01:29N 41°25' E 140°25'3 6.8
2018-Feb-18 01:00N 41°26' E 140°29'4 7.3
2018-Feb-18 00:30N 41°28' E 140°33'4 7.9
2018-Feb-18 00:00N 41°30' E 140°38'4 8.1
2018-Feb-17 23:30N 41°33' E 140°42'4 7.6
2018-Feb-17 23:00N 41°35' E 140°46'4 7.4
2018-Feb-17 22:30N 41°37' E 140°50'3 6.8
2018-Feb-17 22:00N 41°38' E 140°54'3 5.9
2018-Feb-17 21:30N 41°39' E 140°58'3 6.2
2018-Feb-17 21:00N 41°39' E 141°02'5 9.1
2018-Feb-17 20:29N 41°41' E 141°08'4 9.1
2018-Feb-17 20:00N 41°43' E 141°13'4 8.4
2018-Feb-17 19:30N 41°45' E 141°18'4 7.8
2018-Feb-17 19:00N 41°46' E 141°23'4 7.5
2018-Feb-17 18:31N 41°48' E 141°28'4 7.9
2018-Feb-17 18:00N 41°50' E 141°32'4 8.0
2018-Feb-17 17:26N 41°52' E 141°38'10 0.8
2018-Feb-17 05:09N 42°01' E 141°37'2 1.9
2018-Feb-17 04:18N 42°01' E 141°35'1 2.1
2018-Feb-17 03:51N 42°01' E 141°33'1 1.9
2018-Feb-17 03:25N 42°01' E 141°32'1 2.0
2018-Feb-17 02:51N 42°00' E 141°31'1 2.1
2018-Feb-17 02:28N 41°60' E 141°30'1 1.8
2018-Feb-17 02:00N 41°59' E 141°29'1 1.7
2018-Feb-17 01:29N 41°59' E 141°28'1 1.6
2018-Feb-17 00:57N 41°59' E 141°27'1 1.4
2018-Feb-17 00:31N 41°59' E 141°26'0 0.8
2018-Feb-16 23:56N 41°59' E 141°26'15 1.7
2018-Feb-16 14:43N 41°54' E 141°45'0 0.7
2018-Feb-16 14:27N 41°54' E 141°45'1 1.1
2018-Feb-16 13:07N 41°53' E 141°43'0 1.3
2018-Feb-16 12:58N 41°53' E 141°43'1 1.4
2018-Feb-16 12:17N 41°53' E 141°42'1 1.5
2018-Feb-16 11:56N 41°53' E 141°41'1 1.6
2018-Feb-16 11:29N 41°52' E 141°40'1 1.7
2018-Feb-16 11:00N 41°52' E 141°39'1 1.8
2018-Feb-16 10:30N 41°52' E 141°38'1 1.7
2018-Feb-16 10:00N 41°51' E 141°37'1 1.9
2018-Feb-16 09:29N 41°51' E 141°36'1 1.7
2018-Feb-16 08:58N 41°50' E 141°35'1 1.6
2018-Feb-16 08:30N 41°50' E 141°34'1 1.7
2018-Feb-16 08:00N 41°50' E 141°33'1 1.5
2018-Feb-16 07:30N 41°50' E 141°32'1 1.3
2018-Feb-16 06:59N 41°50' E 141°31'1 1.2
2018-Feb-16 06:30N 41°50' E 141°30'1 1.2
2018-Feb-16 06:00N 41°50' E 141°30'1 1.3
2018-Feb-16 05:28N 41°51' E 141°29'1 1.4
2018-Feb-16 04:55N 41°51' E 141°28'1 1.5
2018-Feb-16 04:30N 41°52' E 141°27'1 1.4
2018-Feb-16 03:55N 41°52' E 141°27'1 1.4
2018-Feb-16 03:24N 41°53' E 141°27'1 1.2
2018-Feb-16 02:58N 41°53' E 141°27'4 6.4
2018-Feb-16 02:17N 41°52' E 141°21'0 0.5
2018-Feb-16 02:00N 41°52' E 141°21'2 3.3
2018-Feb-16 01:30N 41°52' E 141°23'4 7.9
2018-Feb-16 00:59N 41°52' E 141°29'611.9
2018-Feb-16 00:30N 41°52' E 141°37'  
2018-Feb-08 23:00N 54°30' W 166°18'   140 / 251008.0 4.0 6.0

Dump ship's entire track history